Date,TemperatureHighF,TemperatureAvgF,TemperatureLowF,DewpointHighF,DewpointAvgF,DewpointLowF,HumidityHigh,HumidityAvg,HumidityLow,PressureMaxIn,PressureMinIn,WindSpeedMaxMPH,WindSpeedAvgMPH,GustSpeedMaxMPH,PrecipitationSumIn
2013-2-1,45,38,26,29,19,8,72,47,27,30.37,29.98,24,4,24,0.00
2013-2-2,45,33,23,37,22,12,94,68,27,30.40,30.08,19,4,19,0.05
2013-2-3,55,42,34,39,31,22,93,67,31,30.08,29.90,24,4,24,0.00
2013-2-4,50,40,30,30,26,22,76,60,38,30.15,30.03,11,2,11,0.00
2013-2-5,62,49,36,47,38,29,90,68,46,30.03,29.91,25,5,25,0.00
2013-2-6,67,51,38,44,35,24,94,61,21,30.19,30.00,10,1,10,0.00
2013-2-7,47,44,42,41,36,27,96,75,48,30.23,29.99,20,3,20,0.55
2013-2-8,60,48,40,50,40,31,100,78,40,30.14,29.91,18,3,20,0.00
2013-2-9,62,47,38,31,26,22,69,45,22,30.33,30.11,24,2,24,0.00
2013-2-10,58,46,38,46,35,27,96,67,36,30.43,30.17,15,1,15,0.40
2013-2-11,56,52,45,56,51,44,98,96,93,30.17,29.96,21,2,21,0.13
2013-2-12,60,51,43,49,39,28,100,69,30,30.10,29.89,10,0,10,0.14
2013-2-13,51,45,38,47,43,34,97,91,80,29.90,29.68,20,2,20,0.05
2013-2-14,53,42,32,37,34,29,91,73,50,30.08,29.90,15,2,15,0.00
2013-2-15,62,47,32,42,35,30,98,66,36,30.11,29.95,19,2,20,0.00
2013-2-16,44,37,29,35,28,15,93,71,48,30.07,29.84,14,2,14,0.02
2013-2-17,47,33,22,22,14,6,76,48,20,30.29,30.06,19,2,19,0.08
2013-2-18,56,40,25,27,23,14,79,53,30,30.40,30.22,16,2,18,0.00
2013-2-19,53,43,38,45,34,16,96,71,33,30.23,29.92,22,3,22,0.20
2013-2-20,57,42,27,27,19,15,73,43,22,30.15,30.05,16,1,16,0.00
2013-2-21,60,44,29,41,23,17,85,46,22,30.24,30.08,11,1,11,0.03
2013-2-22,44,40,39,40,38,37,97,95,84,30.27,30.11,13,2,13,0.35
2013-2-23,45,42,38,44,41,37,98,96,93,30.16,29.86,10,1,10,0.33
2013-2-24,66,51,40,46,41,32,98,73,35,30.01,29.87,10,1,10,0.01
2013-2-25,47,42,37,33,30,28,86,62,54,30.15,29.99,20,4,20,0.00
2013-2-26,43,37,33,42,36,32,98,96,85,30.04,29.62,25,5,25,1.22
2013-2-27,57,48,38,40,37,34,88,67,51,29.84,29.68,24,6,24,0.00
2013-2-28,51,44,34,37,29,26,73,57,42,29.92,29.74,14,4,18,0.00